sensor_id;sensor_type;location;lat;lon;timestamp;temperature;humidity
12833;DHT22;6483;51.310;4.462;2023-07-29T00:00:43;17.70;99.90
12833;DHT22;6483;51.310;4.462;2023-07-29T00:03:09;17.80;99.90
12833;DHT22;6483;51.310;4.462;2023-07-29T00:05:41;17.80;99.90
12833;DHT22;6483;51.310;4.462;2023-07-29T00:08:09;17.80;99.90
12833;DHT22;6483;51.310;4.462;2023-07-29T00:10:38;17.80;99.90
12833;DHT22;6483;51.310;4.462;2023-07-29T00:13:05;17.90;99.90
12833;DHT22;6483;51.310;4.462;2023-07-29T00:15:31;18.00;99.90
12833;DHT22;6483;51.310;4.462;2023-07-29T00:17:59;18.10;99.90
12833;DHT22;6483;51.310;4.462;2023-07-29T00:20:27;18.20;99.90
12833;DHT22;6483;51.310;4.462;2023-07-29T00:22:53;18.30;99.90
12833;DHT22;6483;51.310;4.462;2023-07-29T00:25:20;18.30;99.90
12833;DHT22;6483;51.310;4.462;2023-07-29T00:27:46;18.30;99.90
12833;DHT22;6483;51.310;4.462;2023-07-29T00:30:12;18.40;99.90
12833;DHT22;6483;51.310;4.462;2023-07-29T00:32:37;18.30;99.90
12833;DHT22;6483;51.310;4.462;2023-07-29T00:35:05;18.30;99.90
12833;DHT22;6483;51.310;4.462;2023-07-29T00:37:31;18.30;99.90
12833;DHT22;6483;51.310;4.462;2023-07-29T00:39:57;18.30;99.90
12833;DHT22;6483;51.310;4.462;2023-07-29T00:42:26;18.30;99.90
12833;DHT22;6483;51.310;4.462;2023-07-29T00:44:52;18.30;99.90
12833;DHT22;6483;51.310;4.462;2023-07-29T00:47:22;18.30;99.90
12833;DHT22;6483;51.310;4.462;2023-07-29T00:49:47;18.30;99.90
12833;DHT22;6483;51.310;4.462;2023-07-29T00:52:16;18.30;99.90
12833;DHT22;6483;51.310;4.462;2023-07-29T00:54:43;18.30;99.90
12833;DHT22;6483;51.310;4.462;2023-07-29T00:57:11;18.30;99.90
12833;DHT22;6483;51.310;4.462;2023-07-29T00:59:42;18.20;99.90
12833;DHT22;6483;51.310;4.462;2023-07-29T01:02:10;18.30;99.90
12833;DHT22;6483;51.310;4.462;2023-07-29T01:04:35;18.30;99.90
12833;DHT22;6483;51.310;4.462;2023-07-29T01:07:21;18.20;99.90
12833;DHT22;6483;51.310;4.462;2023-07-29T01:10:04;18.10;99.90
12833;DHT22;6483;51.310;4.462;2023-07-29T01:21:03;17.90;99.90
12833;DHT22;6483;51.310;4.462;2023-07-29T01:23:34;17.80;99.90
12833;DHT22;6483;51.310;4.462;2023-07-29T01:26:01;17.80;99.90
12833;DHT22;6483;51.310;4.462;2023-07-29T01:28:30;17.80;99.90
12833;DHT22;6483;51.310;4.462;2023-07-29T01:31:17;17.70;99.90
12833;DHT22;6483;51.310;4.462;2023-07-29T01:33:58;17.70;99.90
12833;DHT22;6483;51.310;4.462;2023-07-29T01:36:28;17.70;99.90
12833;DHT22;6483;51.310;4.462;2023-07-29T01:38:55;17.80;99.90
12833;DHT22;6483;51.310;4.462;2023-07-29T01:41:22;17.50;99.90
12833;DHT22;6483;51.310;4.462;2023-07-29T01:43:53;17.60;99.90
12833;DHT22;6483;51.310;4.462;2023-07-29T01:46:18;17.60;99.90
12833;DHT22;6483;51.310;4.462;2023-07-29T01:48:44;17.50;99.90
12833;DHT22;6483;51.310;4.462;2023-07-29T01:51:12;17.50;99.90
12833;DHT22;6483;51.310;4.462;2023-07-29T01:53:41;17.50;99.90
12833;DHT22;6483;51.310;4.462;2023-07-29T01:56:07;17.50;99.90
12833;DHT22;6483;51.310;4.462;2023-07-29T01:58:33;17.60;99.90
12833;DHT22;6483;51.310;4.462;2023-07-29T02:01:00;17.60;99.90
12833;DHT22;6483;51.310;4.462;2023-07-29T02:03:26;17.60;99.90
12833;DHT22;6483;51.310;4.462;2023-07-29T02:05:54;17.60;99.90
12833;DHT22;6483;51.310;4.462;2023-07-29T02:08:23;17.50;99.90
12833;DHT22;6483;51.310;4.462;2023-07-29T02:10:49;17.50;99.90
12833;DHT22;6483;51.310;4.462;2023-07-29T02:13:15;17.50;99.90
12833;DHT22;6483;51.310;4.462;2023-07-29T02:15:43;17.50;99.90
12833;DHT22;6483;51.310;4.462;2023-07-29T02:18:09;17.50;99.90
12833;DHT22;6483;51.310;4.462;2023-07-29T02:20:36;17.50;99.90
12833;DHT22;6483;51.310;4.462;2023-07-29T02:23:02;17.50;99.90
12833;DHT22;6483;51.310;4.462;2023-07-29T02:25:28;17.40;99.90
12833;DHT22;6483;51.310;4.462;2023-07-29T02:27:53;17.40;99.90
12833;DHT22;6483;51.310;4.462;2023-07-29T02:30:20;17.40;99.90
12833;DHT22;6483;51.310;4.462;2023-07-29T02:32:46;17.30;99.90
12833;DHT22;6483;51.310;4.462;2023-07-29T02:35:12;17.20;99.90
12833;DHT22;6483;51.310;4.462;2023-07-29T02:37:39;17.20;99.90
12833;DHT22;6483;51.310;4.462;2023-07-29T02:40:05;17.20;99.90
12833;DHT22;6483;51.310;4.462;2023-07-29T02:42:34;17.10;99.90
12833;DHT22;6483;51.310;4.462;2023-07-29T02:45:00;17.00;99.90
12833;DHT22;6483;51.310;4.462;2023-07-29T02:47:28;17.20;99.90
12833;DHT22;6483;51.310;4.462;2023-07-29T02:49:54;17.20;99.90
12833;DHT22;6483;51.310;4.462;2023-07-29T02:52:22;17.10;99.90
12833;DHT22;6483;51.310;4.462;2023-07-29T02:54:48;17.10;99.90
12833;DHT22;6483;51.310;4.462;2023-07-29T02:57:16;17.20;99.90
12833;DHT22;6483;51.310;4.462;2023-07-29T02:59:42;17.20;99.90
12833;DHT22;6483;51.310;4.462;2023-07-29T03:02:08;17.10;99.90
12833;DHT22;6483;51.310;4.462;2023-07-29T03:04:34;17.10;99.90
12833;DHT22;6483;51.310;4.462;2023-07-29T03:06:59;17.10;99.90
12833;DHT22;6483;51.310;4.462;2023-07-29T03:09:25;17.10;99.90
12833;DHT22;6483;51.310;4.462;2023-07-29T03:11:51;17.10;99.90
12833;DHT22;6483;51.310;4.462;2023-07-29T03:14:18;17.10;99.90
12833;DHT22;6483;51.310;4.462;2023-07-29T03:16:47;17.10;99.90
12833;DHT22;6483;51.310;4.462;2023-07-29T03:19:13;17.00;99.90
12833;DHT22;6483;51.310;4.462;2023-07-29T03:21:42;17.00;99.90
12833;DHT22;6483;51.310;4.462;2023-07-29T03:24:07;17.00;99.90
12833;DHT22;6483;51.310;4.462;2023-07-29T03:26:33;16.90;99.90
12833;DHT22;6483;51.310;4.462;2023-07-29T03:29:00;16.90;99.90
12833;DHT22;6483;51.310;4.462;2023-07-29T03:31:29;16.90;99.90
12833;DHT22;6483;51.310;4.462;2023-07-29T03:33:57;17.00;99.90
12833;DHT22;6483;51.310;4.462;2023-07-29T03:36:25;17.00;99.90
12833;DHT22;6483;51.310;4.462;2023-07-29T03:38:51;16.90;99.90
12833;DHT22;6483;51.310;4.462;2023-07-29T03:41:20;16.90;99.90
12833;DHT22;6483;51.310;4.462;2023-07-29T03:43:45;16.90;99.90
12833;DHT22;6483;51.310;4.462;2023-07-29T03:46:11;16.90;99.90
12833;DHT22;6483;51.310;4.462;2023-07-29T03:48:37;16.90;99.90
12833;DHT22;6483;51.310;4.462;2023-07-29T03:51:03;16.80;99.90
12833;DHT22;6483;51.310;4.462;2023-07-29T03:53:28;16.80;99.90
12833;DHT22;6483;51.310;4.462;2023-07-29T03:55:54;16.80;99.90
12833;DHT22;6483;51.310;4.462;2023-07-29T03:58:20;16.80;99.90
12833;DHT22;6483;51.310;4.462;2023-07-29T04:00:45;16.90;99.90
12833;DHT22;6483;51.310;4.462;2023-07-29T04:03:14;16.90;99.90
12833;DHT22;6483;51.310;4.462;2023-07-29T04:05:39;16.80;99.90
12833;DHT22;6483;51.310;4.462;2023-07-29T04:08:05;16.80;99.90
12833;DHT22;6483;51.310;4.462;2023-07-29T04:10:30;16.80;99.90
12833;DHT22;6483;51.310;4.462;2023-07-29T04:12:57;16.80;99.90
12833;DHT22;6483;51.310;4.462;2023-07-29T04:15:25;16.80;99.90
12833;DHT22;6483;51.310;4.462;2023-07-29T04:17:54;16.80;99.90
12833;DHT22;6483;51.310;4.462;2023-07-29T04:20:19;16.90;99.90
12833;DHT22;6483;51.310;4.462;2023-07-29T04:22:45;16.90;99.90
12833;DHT22;6483;51.310;4.462;2023-07-29T04:25:10;17.00;99.90
12833;DHT22;6483;51.310;4.462;2023-07-29T04:27:36;17.00;99.90
12833;DHT22;6483;51.310;4.462;2023-07-29T04:30:02;17.00;99.90
12833;DHT22;6483;51.310;4.462;2023-07-29T04:32:28;17.00;99.90
12833;DHT22;6483;51.310;4.462;2023-07-29T04:34:56;17.10;99.90
12833;DHT22;6483;51.310;4.462;2023-07-29T04:37:22;17.10;99.90
12833;DHT22;6483;51.310;4.462;2023-07-29T04:39:50;17.10;99.90
12833;DHT22;6483;51.310;4.462;2023-07-29T04:42:19;17.20;99.90
12833;DHT22;6483;51.310;4.462;2023-07-29T04:44:46;17.20;99.90
12833;DHT22;6483;51.310;4.462;2023-07-29T04:47:11;17.20;99.90
12833;DHT22;6483;51.310;4.462;2023-07-29T04:49:40;17.30;99.90
12833;DHT22;6483;51.310;4.462;2023-07-29T04:52:07;17.30;99.90
12833;DHT22;6483;51.310;4.462;2023-07-29T04:54:33;17.30;99.90
12833;DHT22;6483;51.310;4.462;2023-07-29T04:57:04;17.30;99.90
12833;DHT22;6483;51.310;4.462;2023-07-29T04:59:30;17.40;99.90
12833;DHT22;6483;51.310;4.462;2023-07-29T05:01:56;17.40;99.90
12833;DHT22;6483;51.310;4.462;2023-07-29T05:04:22;17.40;99.90
12833;DHT22;6483;51.310;4.462;2023-07-29T05:06:48;17.50;99.90
12833;DHT22;6483;51.310;4.462;2023-07-29T05:09:16;17.50;99.90
12833;DHT22;6483;51.310;4.462;2023-07-29T05:11:44;17.50;99.90
12833;DHT22;6483;51.310;4.462;2023-07-29T05:14:19;17.40;99.90
12833;DHT22;6483;51.310;4.462;2023-07-29T05:16:45;17.40;99.90
12833;DHT22;6483;51.310;4.462;2023-07-29T05:19:15;17.40;99.90
12833;DHT22;6483;51.310;4.462;2023-07-29T05:21:41;17.50;99.90
12833;DHT22;6483;51.310;4.462;2023-07-29T05:24:07;17.50;99.90
12833;DHT22;6483;51.310;4.462;2023-07-29T05:26:36;17.70;99.90
12833;DHT22;6483;51.310;4.462;2023-07-29T05:29:02;17.90;99.90
12833;DHT22;6483;51.310;4.462;2023-07-29T05:31:29;18.00;99.90
12833;DHT22;6483;51.310;4.462;2023-07-29T05:33:55;18.00;99.90
12833;DHT22;6483;51.310;4.462;2023-07-29T05:36:21;18.00;99.90
12833;DHT22;6483;51.310;4.462;2023-07-29T05:38:49;17.90;99.90
12833;DHT22;6483;51.310;4.462;2023-07-29T05:41:15;17.80;99.90
12833;DHT22;6483;51.310;4.462;2023-07-29T05:43:41;17.80;99.90
12833;DHT22;6483;51.310;4.462;2023-07-29T05:46:09;17.80;99.90
12833;DHT22;6483;51.310;4.462;2023-07-29T05:51:30;17.90;99.90
12833;DHT22;6483;51.310;4.462;2023-07-29T05:53:58;17.90;99.90
12833;DHT22;6483;51.310;4.462;2023-07-29T05:56:27;17.90;99.90
12833;DHT22;6483;51.310;4.462;2023-07-29T05:58:55;17.80;99.90
12833;DHT22;6483;51.310;4.462;2023-07-29T06:01:22;17.80;99.90
12833;DHT22;6483;51.310;4.462;2023-07-29T06:03:48;17.70;99.90
12833;DHT22;6483;51.310;4.462;2023-07-29T06:06:13;17.70;99.90
12833;DHT22;6483;51.310;4.462;2023-07-29T06:08:39;17.70;99.90
12833;DHT22;6483;51.310;4.462;2023-07-29T06:11:05;17.80;99.90
12833;DHT22;6483;51.310;4.462;2023-07-29T06:13:37;17.90;99.90
12833;DHT22;6483;51.310;4.462;2023-07-29T06:16:02;18.00;99.90
12833;DHT22;6483;51.310;4.462;2023-07-29T06:18:28;18.10;99.90
12833;DHT22;6483;51.310;4.462;2023-07-29T06:20:54;18.30;99.90
12833;DHT22;6483;51.310;4.462;2023-07-29T06:23:20;18.50;99.90
12833;DHT22;6483;51.310;4.462;2023-07-29T06:25:46;18.60;99.90
12833;DHT22;6483;51.310;4.462;2023-07-29T06:28:14;18.80;99.90
12833;DHT22;6483;51.310;4.462;2023-07-29T06:30:40;19.00;99.90
12833;DHT22;6483;51.310;4.462;2023-07-29T06:33:06;19.10;99.90
12833;DHT22;6483;51.310;4.462;2023-07-29T06:35:32;19.20;99.90
12833;DHT22;6483;51.310;4.462;2023-07-29T06:37:57;19.20;25.80
12833;DHT22;6483;51.310;4.462;2023-07-29T06:40:23;19.20;73.00
12833;DHT22;6483;51.310;4.462;2023-07-29T06:42:52;19.10;21.60
12833;DHT22;6483;51.310;4.462;2023-07-29T06:45:18;19.00;95.60
12833;DHT22;6483;51.310;4.462;2023-07-29T06:47:44;19.00;99.90
12833;DHT22;6483;51.310;4.462;2023-07-29T06:50:10;19.00;99.90
12833;DHT22;6483;51.310;4.462;2023-07-29T06:52:35;19.10;89.90
12833;DHT22;6483;51.310;4.462;2023-07-29T06:55:02;19.30;7.60
12833;DHT22;6483;51.310;4.462;2023-07-29T06:57:28;19.60;1.00
12833;DHT22;6483;51.310;4.462;2023-07-29T06:59:54;19.80;1.00
12833;DHT22;6483;51.310;4.462;2023-07-29T07:02:22;19.90;1.00
12833;DHT22;6483;51.310;4.462;2023-07-29T07:04:48;20.20;1.00
12833;DHT22;6483;51.310;4.462;2023-07-29T07:07:15;20.10;1.00
12833;DHT22;6483;51.310;4.462;2023-07-29T07:09:41;20.00;1.00
12833;DHT22;6483;51.310;4.462;2023-07-29T07:12:10;20.10;1.00
12833;DHT22;6483;51.310;4.462;2023-07-29T07:14:40;20.00;1.00
12833;DHT22;6483;51.310;4.462;2023-07-29T07:17:06;19.90;1.00
12833;DHT22;6483;51.310;4.462;2023-07-29T07:19:31;19.70;1.00
12833;DHT22;6483;51.310;4.462;2023-07-29T07:21:57;19.60;1.00
12833;DHT22;6483;51.310;4.462;2023-07-29T07:24:23;19.50;1.00
12833;DHT22;6483;51.310;4.462;2023-07-29T07:26:49;19.40;1.00
12833;DHT22;6483;51.310;4.462;2023-07-29T07:29:17;19.40;1.00
12833;DHT22;6483;51.310;4.462;2023-07-29T07:31:53;19.40;1.00
12833;DHT22;6483;51.310;4.462;2023-07-29T07:34:20;19.50;1.00
12833;DHT22;6483;51.310;4.462;2023-07-29T07:36:46;19.60;1.00
12833;DHT22;6483;51.310;4.462;2023-07-29T07:39:13;19.60;1.00
12833;DHT22;6483;51.310;4.462;2023-07-29T07:41:38;19.80;1.00
12833;DHT22;6483;51.310;4.462;2023-07-29T07:44:10;20.00;1.00
12833;DHT22;6483;51.310;4.462;2023-07-29T07:46:41;20.10;1.00
12833;DHT22;6483;51.310;4.462;2023-07-29T07:49:07;20.30;1.00
12833;DHT22;6483;51.310;4.462;2023-07-29T07:51:32;20.40;1.00
12833;DHT22;6483;51.310;4.462;2023-07-29T07:53:58;20.70;1.00
12833;DHT22;6483;51.310;4.462;2023-07-29T07:56:24;20.70;1.00
12833;DHT22;6483;51.310;4.462;2023-07-29T07:58:50;20.80;99.90
12833;DHT22;6483;51.310;4.462;2023-07-29T08:01:15;20.80;99.90
12833;DHT22;6483;51.310;4.462;2023-07-29T08:03:41;20.80;99.90
12833;DHT22;6483;51.310;4.462;2023-07-29T08:06:07;20.70;99.90
12833;DHT22;6483;51.310;4.462;2023-07-29T08:08:32;20.50;1.00
12833;DHT22;6483;51.310;4.462;2023-07-29T08:10:58;20.40;1.00
12833;DHT22;6483;51.310;4.462;2023-07-29T08:13:24;20.50;1.00
12833;DHT22;6483;51.310;4.462;2023-07-29T08:15:51;21.30;99.90
12833;DHT22;6483;51.310;4.462;2023-07-29T08:18:17;21.40;1.00
12833;DHT22;6483;51.310;4.462;2023-07-29T08:21:00;21.30;99.90
12833;DHT22;6483;51.310;4.462;2023-07-29T08:23:34;21.50;99.90
12833;DHT22;6483;51.310;4.462;2023-07-29T08:26:02;22.00;23.20
12833;DHT22;6483;51.310;4.462;2023-07-29T08:28:37;22.40;1.00
12833;DHT22;6483;51.310;4.462;2023-07-29T08:31:04;22.60;1.00
12833;DHT22;6483;51.310;4.462;2023-07-29T08:33:33;22.40;1.00
12833;DHT22;6483;51.310;4.462;2023-07-29T08:36:03;22.00;1.00
12833;DHT22;6483;51.310;4.462;2023-07-29T08:38:29;21.80;1.00
12833;DHT22;6483;51.310;4.462;2023-07-29T08:43:39;21.70;1.00
12833;DHT22;6483;51.310;4.462;2023-07-29T08:46:05;22.00;1.00
12833;DHT22;6483;51.310;4.462;2023-07-29T08:48:42;22.00;1.00
12833;DHT22;6483;51.310;4.462;2023-07-29T08:51:10;22.30;99.90
12833;DHT22;6483;51.310;4.462;2023-07-29T08:53:45;23.10;1.00
12833;DHT22;6483;51.310;4.462;2023-07-29T08:56:11;22.90;1.00
12833;DHT22;6483;51.310;4.462;2023-07-29T08:58:37;22.50;1.00
12833;DHT22;6483;51.310;4.462;2023-07-29T09:01:05;22.60;1.00
12833;DHT22;6483;51.310;4.462;2023-07-29T09:03:31;22.70;1.00
12833;DHT22;6483;51.310;4.462;2023-07-29T09:06:01;22.40;1.00
12833;DHT22;6483;51.310;4.462;2023-07-29T09:08:27;22.00;1.00
12833;DHT22;6483;51.310;4.462;2023-07-29T09:10:54;22.30;99.90
12833;DHT22;6483;51.310;4.462;2023-07-29T09:13:26;22.80;1.00
12833;DHT22;6483;51.310;4.462;2023-07-29T09:16:16;22.90;1.00
12833;DHT22;6483;51.310;4.462;2023-07-29T09:18:48;23.30;99.90
12833;DHT22;6483;51.310;4.462;2023-07-29T09:21:25;23.20;99.90
12833;DHT22;6483;51.310;4.462;2023-07-29T09:23:52;23.30;99.90
12833;DHT22;6483;51.310;4.462;2023-07-29T09:26:28;22.90;99.90
12833;DHT22;6483;51.310;4.462;2023-07-29T09:28:59;22.80;1.00
12833;DHT22;6483;51.310;4.462;2023-07-29T09:31:29;22.80;1.00
12833;DHT22;6483;51.310;4.462;2023-07-29T09:34:02;22.80;1.00
12833;DHT22;6483;51.310;4.462;2023-07-29T09:36:31;22.70;1.00
12833;DHT22;6483;51.310;4.462;2023-07-29T09:38:57;23.00;1.00
12833;DHT22;6483;51.310;4.462;2023-07-29T09:41:46;23.00;1.00
12833;DHT22;6483;51.310;4.462;2023-07-29T09:44:12;22.70;1.00
12833;DHT22;6483;51.310;4.462;2023-07-29T09:46:38;22.50;1.00
12833;DHT22;6483;51.310;4.462;2023-07-29T09:49:05;22.20;1.00
12833;DHT22;6483;51.310;4.462;2023-07-29T09:51:31;21.90;99.90
12833;DHT22;6483;51.310;4.462;2023-07-29T09:53:57;21.80;99.90
12833;DHT22;6483;51.310;4.462;2023-07-29T09:56:27;21.50;99.90
12833;DHT22;6483;51.310;4.462;2023-07-29T09:58:55;21.50;1.00
12833;DHT22;6483;51.310;4.462;2023-07-29T10:01:21;21.60;1.00
12833;DHT22;6483;51.310;4.462;2023-07-29T10:03:50;21.70;99.90
12833;DHT22;6483;51.310;4.462;2023-07-29T10:06:17;21.70;99.90
12833;DHT22;6483;51.310;4.462;2023-07-29T10:08:47;21.70;1.00
12833;DHT22;6483;51.310;4.462;2023-07-29T10:11:14;21.60;1.00
12833;DHT22;6483;51.310;4.462;2023-07-29T10:13:41;21.60;1.00
12833;DHT22;6483;51.310;4.462;2023-07-29T10:16:10;21.70;1.00
12833;DHT22;6483;51.310;4.462;2023-07-29T10:18:37;22.10;1.00
12833;DHT22;6483;51.310;4.462;2023-07-29T10:21:05;22.40;1.00
12833;DHT22;6483;51.310;4.462;2023-07-29T10:23:38;22.50;50.50
12833;DHT22;6483;51.310;4.462;2023-07-29T10:26:07;22.50;1.00
12833;DHT22;6483;51.310;4.462;2023-07-29T10:28:40;22.60;32.10
12833;DHT22;6483;51.310;4.462;2023-07-29T10:31:07;22.60;1.00
12833;DHT22;6483;51.310;4.462;2023-07-29T10:33:37;22.60;1.00
12833;DHT22;6483;51.310;4.462;2023-07-29T10:36:04;22.60;1.00
12833;DHT22;6483;51.310;4.462;2023-07-29T10:38:31;23.30;1.00
12833;DHT22;6483;51.310;4.462;2023-07-29T10:40:58;24.40;99.90
12833;DHT22;6483;51.310;4.462;2023-07-29T10:43:35;25.70;1.00
12833;DHT22;6483;51.310;4.462;2023-07-29T10:46:24;25.60;1.00
12833;DHT22;6483;51.310;4.462;2023-07-29T10:48:53;25.90;1.00
12833;DHT22;6483;51.310;4.462;2023-07-29T10:51:37;25.50;1.00
12833;DHT22;6483;51.310;4.462;2023-07-29T10:54:14;25.30;1.00
12833;DHT22;6483;51.310;4.462;2023-07-29T10:56:49;24.60;1.00
12833;DHT22;6483;51.310;4.462;2023-07-29T11:01:43;24.70;1.00
12833;DHT22;6483;51.310;4.462;2023-07-29T11:12:43;22.70;1.00
12833;DHT22;6483;51.310;4.462;2023-07-29T11:15:14;22.00;99.90
12833;DHT22;6483;51.310;4.462;2023-07-29T11:20:35;20.70;1.00
12833;DHT22;6483;51.310;4.462;2023-07-29T11:23:03;20.50;1.00
12833;DHT22;6483;51.310;4.462;2023-07-29T11:25:30;20.50;1.00
12833;DHT22;6483;51.310;4.462;2023-07-29T11:27:57;20.50;1.00
12833;DHT22;6483;51.310;4.462;2023-07-29T11:30:24;20.50;1.00
12833;DHT22;6483;51.310;4.462;2023-07-29T11:32:53;20.10;1.00
12833;DHT22;6483;51.310;4.462;2023-07-29T11:35:22;19.70;99.90
12833;DHT22;6483;51.310;4.462;2023-07-29T11:37:50;19.40;99.90
12833;DHT22;6483;51.310;4.462;2023-07-29T11:40:20;19.10;99.90
12833;DHT22;6483;51.310;4.462;2023-07-29T11:42:47;18.80;99.90
12833;DHT22;6483;51.310;4.462;2023-07-29T11:45:17;18.60;99.90
12833;DHT22;6483;51.310;4.462;2023-07-29T11:47:45;18.30;99.90
12833;DHT22;6483;51.310;4.462;2023-07-29T11:50:12;18.30;99.90
12833;DHT22;6483;51.310;4.462;2023-07-29T11:52:45;18.40;99.90
12833;DHT22;6483;51.310;4.462;2023-07-29T11:55:12;16.50;99.90
12833;DHT22;6483;51.310;4.462;2023-07-29T11:57:39;18.70;99.90
12833;DHT22;6483;51.310;4.462;2023-07-29T12:00:06;18.50;99.90
12833;DHT22;6483;51.310;4.462;2023-07-29T12:02:36;18.50;99.90
12833;DHT22;6483;51.310;4.462;2023-07-29T12:05:06;18.70;99.90
12833;DHT22;6483;51.310;4.462;2023-07-29T12:07:32;19.20;99.90
12833;DHT22;6483;51.310;4.462;2023-07-29T12:10:06;20.90;99.90
12833;DHT22;6483;51.310;4.462;2023-07-29T12:12:32;23.70;99.90
12833;DHT22;6483;51.310;4.462;2023-07-29T12:14:57;25.40;98.80
12833;DHT22;6483;51.310;4.462;2023-07-29T12:17:23;27.30;34.20
12833;DHT22;6483;51.310;4.462;2023-07-29T12:19:49;28.00;1.00
12833;DHT22;6483;51.310;4.462;2023-07-29T12:22:22;28.20;99.90
12833;DHT22;6483;51.310;4.462;2023-07-29T12:24:52;29.00;1.00
12833;DHT22;6483;51.310;4.462;2023-07-29T12:27:23;29.00;1.00
12833;DHT22;6483;51.310;4.462;2023-07-29T12:29:51;29.00;1.00
12833;DHT22;6483;51.310;4.462;2023-07-29T12:32:17;28.90;99.90
12833;DHT22;6483;51.310;4.462;2023-07-29T12:34:44;29.70;1.00
12833;DHT22;6483;51.310;4.462;2023-07-29T12:37:13;28.80;1.00
12833;DHT22;6483;51.310;4.462;2023-07-29T12:39:42;28.30;91.90
12833;DHT22;6483;51.310;4.462;2023-07-29T12:42:08;28.20;33.90
12833;DHT22;6483;51.310;4.462;2023-07-29T12:44:35;28.40;27.00
12833;DHT22;6483;51.310;4.462;2023-07-29T12:47:02;29.00;1.00
12833;DHT22;6483;51.310;4.462;2023-07-29T12:49:32;29.70;1.00
12833;DHT22;6483;51.310;4.462;2023-07-29T12:52:00;30.60;99.90
12833;DHT22;6483;51.310;4.462;2023-07-29T12:54:26;30.50;99.90
12833;DHT22;6483;51.310;4.462;2023-07-29T12:56:52;31.10;99.90
12833;DHT22;6483;51.310;4.462;2023-07-29T12:59:18;32.20;99.90
12833;DHT22;6483;51.310;4.462;2023-07-29T13:01:47;30.90;77.30
12833;DHT22;6483;51.310;4.462;2023-07-29T13:04:13;29.60;99.90
12833;DHT22;6483;51.310;4.462;2023-07-29T13:06:39;29.90;99.90
12833;DHT22;6483;51.310;4.462;2023-07-29T13:09:04;30.50;99.90
12833;DHT22;6483;51.310;4.462;2023-07-29T13:11:31;31.50;99.90
12833;DHT22;6483;51.310;4.462;2023-07-29T13:14:00;32.80;25.00
12833;DHT22;6483;51.310;4.462;2023-07-29T13:16:50;32.40;1.00
12833;DHT22;6483;51.310;4.462;2023-07-29T13:19:18;31.70;1.00
12833;DHT22;6483;51.310;4.462;2023-07-29T13:21:44;31.30;53.00
12833;DHT22;6483;51.310;4.462;2023-07-29T13:24:15;31.50;36.20
12833;DHT22;6483;51.310;4.462;2023-07-29T13:26:41;30.80;93.00
12833;DHT22;6483;51.310;4.462;2023-07-29T13:29:07;29.40;92.90
12833;DHT22;6483;51.310;4.462;2023-07-29T13:31:34;29.40;99.90
12833;DHT22;6483;51.310;4.462;2023-07-29T13:34:00;30.40;99.90
12833;DHT22;6483;51.310;4.462;2023-07-29T13:36:25;30.70;37.10
12833;DHT22;6483;51.310;4.462;2023-07-29T13:38:51;29.50;99.90
12833;DHT22;6483;51.310;4.462;2023-07-29T13:41:16;30.10;99.90
12833;DHT22;6483;51.310;4.462;2023-07-29T13:43:42;29.70;99.90
12833;DHT22;6483;51.310;4.462;2023-07-29T13:46:08;28.80;99.90
12833;DHT22;6483;51.310;4.462;2023-07-29T13:48:33;28.70;99.90
12833;DHT22;6483;51.310;4.462;2023-07-29T13:51:01;29.00;99.90
12833;DHT22;6483;51.310;4.462;2023-07-29T13:53:26;28.30;99.90
12833;DHT22;6483;51.310;4.462;2023-07-29T13:55:55;27.70;99.90
12833;DHT22;6483;51.310;4.462;2023-07-29T13:58:23;28.80;1.00
12833;DHT22;6483;51.310;4.462;2023-07-29T14:00:49;27.60;1.00
12833;DHT22;6483;51.310;4.462;2023-07-29T14:03:15;27.20;1.00
12833;DHT22;6483;51.310;4.462;2023-07-29T14:05:41;26.90;1.00
12833;DHT22;6483;51.310;4.462;2023-07-29T14:08:06;26.00;1.00
12833;DHT22;6483;51.310;4.462;2023-07-29T14:10:32;26.00;87.00
12833;DHT22;6483;51.310;4.462;2023-07-29T14:12:57;25.90;84.20
12833;DHT22;6483;51.310;4.462;2023-07-29T14:15:23;25.60;99.90
12833;DHT22;6483;51.310;4.462;2023-07-29T14:17:49;25.20;99.90
12833;DHT22;6483;51.310;4.462;2023-07-29T14:20:14;24.70;99.90
12833;DHT22;6483;51.310;4.462;2023-07-29T14:22:43;24.30;1.00
12833;DHT22;6483;51.310;4.462;2023-07-29T14:25:08;23.60;99.90
12833;DHT22;6483;51.310;4.462;2023-07-29T14:27:38;23.40;99.90
12833;DHT22;6483;51.310;4.462;2023-07-29T14:30:07;23.00;99.90
12833;DHT22;6483;51.310;4.462;2023-07-29T14:32:33;22.00;3.20
12833;DHT22;6483;51.310;4.462;2023-07-29T14:34:59;21.30;1.00
12833;DHT22;6483;51.310;4.462;2023-07-29T14:37:30;20.90;99.90
12833;DHT22;6483;51.310;4.462;2023-07-29T14:39:57;20.70;99.90
12833;DHT22;6483;51.310;4.462;2023-07-29T14:42:23;21.10;99.90
12833;DHT22;6483;51.310;4.462;2023-07-29T14:44:52;22.10;99.90
12833;DHT22;6483;51.310;4.462;2023-07-29T14:47:18;24.60;1.00
12833;DHT22;6483;51.310;4.462;2023-07-29T14:49:47;26.00;1.30
12833;DHT22;6483;51.310;4.462;2023-07-29T14:52:13;27.50;1.00
12833;DHT22;6483;51.310;4.462;2023-07-29T14:54:39;27.80;99.90
12833;DHT22;6483;51.310;4.462;2023-07-29T14:57:05;29.00;1.00
12833;DHT22;6483;51.310;4.462;2023-07-29T14:59:31;29.50;1.00
12833;DHT22;6483;51.310;4.462;2023-07-29T15:01:59;29.40;99.90
12833;DHT22;6483;51.310;4.462;2023-07-29T15:04:28;29.00;1.00
12833;DHT22;6483;51.310;4.462;2023-07-29T15:06:57;29.30;99.90
12833;DHT22;6483;51.310;4.462;2023-07-29T15:09:24;29.90;99.90
12833;DHT22;6483;51.310;4.462;2023-07-29T15:11:52;29.00;99.90
12833;DHT22;6483;51.310;4.462;2023-07-29T15:14:18;27.80;99.90
12833;DHT22;6483;51.310;4.462;2023-07-29T15:16:44;27.00;99.90
12833;DHT22;6483;51.310;4.462;2023-07-29T15:19:10;26.40;1.00
12833;DHT22;6483;51.310;4.462;2023-07-29T15:21:36;25.60;1.00
12833;DHT22;6483;51.310;4.462;2023-07-29T15:24:02;25.60;1.00
12833;DHT22;6483;51.310;4.462;2023-07-29T15:26:27;25.80;1.00
12833;DHT22;6483;51.310;4.462;2023-07-29T15:28:54;26.60;1.00
12833;DHT22;6483;51.310;4.462;2023-07-29T15:31:19;27.60;1.00
12833;DHT22;6483;51.310;4.462;2023-07-29T15:33:45;27.10;1.00
12833;DHT22;6483;51.310;4.462;2023-07-29T15:36:11;27.20;1.00
12833;DHT22;6483;51.310;4.462;2023-07-29T15:38:36;27.00;1.00
12833;DHT22;6483;51.310;4.462;2023-07-29T15:41:02;27.30;99.90
12833;DHT22;6483;51.310;4.462;2023-07-29T15:43:28;25.00;1.00
12833;DHT22;6483;51.310;4.462;2023-07-29T15:45:54;25.90;1.00
12833;DHT22;6483;51.310;4.462;2023-07-29T15:48:20;26.50;1.00
12833;DHT22;6483;51.310;4.462;2023-07-29T15:50:48;26.70;1.00
12833;DHT22;6483;51.310;4.462;2023-07-29T15:53:15;26.70;1.00
12833;DHT22;6483;51.310;4.462;2023-07-29T15:55:41;27.00;1.00
12833;DHT22;6483;51.310;4.462;2023-07-29T15:58:07;26.90;1.00
12833;DHT22;6483;51.310;4.462;2023-07-29T16:00:33;27.20;99.90
12833;DHT22;6483;51.310;4.462;2023-07-29T16:02:58;27.00;99.90
12833;DHT22;6483;51.310;4.462;2023-07-29T16:05:24;27.20;1.00
12833;DHT22;6483;51.310;4.462;2023-07-29T16:07:50;27.60;99.90
12833;DHT22;6483;51.310;4.462;2023-07-29T16:10:15;27.20;99.90
12833;DHT22;6483;51.310;4.462;2023-07-29T16:12:41;27.50;99.90
12833;DHT22;6483;51.310;4.462;2023-07-29T16:15:09;26.00;1.00
12833;DHT22;6483;51.310;4.462;2023-07-29T16:17:35;26.00;1.00
12833;DHT22;6483;51.310;4.462;2023-07-29T16:20:02;25.50;1.00
12833;DHT22;6483;51.310;4.462;2023-07-29T16:22:30;25.10;1.00